sensor_id;sensor_type;location;lat;lon;timestamp;P1;durP1;ratioP1;P2;durP2;ratioP2
3006;SDS011;1513;47.650;10.720;2022-12-11T00:00:36;31.43;;;13.83;;
3006;SDS011;1513;47.650;10.720;2022-12-11T00:03:03;32.13;;;13.30;;
3006;SDS011;1513;47.650;10.720;2022-12-11T00:05:30;23.93;;;10.70;;
3006;SDS011;1513;47.650;10.720;2022-12-11T00:07:56;20.57;;;8.97;;
3006;SDS011;1513;47.650;10.720;2022-12-11T00:10:23;17.30;;;7.87;;
3006;SDS011;1513;47.650;10.720;2022-12-11T00:12:49;16.77;;;8.77;;
3006;SDS011;1513;47.650;10.720;2022-12-11T00:15:15;15.10;;;6.63;;
3006;SDS011;1513;47.650;10.720;2022-12-11T00:17:41;16.37;;;7.03;;
3006;SDS011;1513;47.650;10.720;2022-12-11T00:20:07;12.03;;;6.13;;
3006;SDS011;1513;47.650;10.720;2022-12-11T00:22:34;14.13;;;6.30;;
3006;SDS011;1513;47.650;10.720;2022-12-11T00:25:00;9.13;;;5.97;;
3006;SDS011;1513;47.650;10.720;2022-12-11T00:27:26;12.47;;;6.07;;
3006;SDS011;1513;47.650;10.720;2022-12-11T00:29:51;12.50;;;6.73;;
3006;SDS011;1513;47.650;10.720;2022-12-11T00:32:17;18.83;;;6.73;;
3006;SDS011;1513;47.650;10.720;2022-12-11T00:34:43;14.87;;;6.87;;
3006;SDS011;1513;47.650;10.720;2022-12-11T00:37:09;13.20;;;6.50;;
3006;SDS011;1513;47.650;10.720;2022-12-11T00:39:35;16.63;;;8.33;;
3006;SDS011;1513;47.650;10.720;2022-12-11T00:42:04;17.60;;;7.40;;
3006;SDS011;1513;47.650;10.720;2022-12-11T00:44:33;15.73;;;7.30;;
3006;SDS011;1513;47.650;10.720;2022-12-11T00:46:59;15.87;;;7.00;;
3006;SDS011;1513;47.650;10.720;2022-12-11T00:49:25;13.77;;;7.27;;
3006;SDS011;1513;47.650;10.720;2022-12-11T00:51:51;17.47;;;7.70;;
3006;SDS011;1513;47.650;10.720;2022-12-11T00:54:17;16.90;;;7.60;;
3006;SDS011;1513;47.650;10.720;2022-12-11T00:56:43;18.13;;;8.83;;
3006;SDS011;1513;47.650;10.720;2022-12-11T00:59:09;16.67;;;7.93;;
3006;SDS011;1513;47.650;10.720;2022-12-11T01:01:34;16.70;;;7.80;;
3006;SDS011;1513;47.650;10.720;2022-12-11T01:04:00;13.37;;;7.80;;
3006;SDS011;1513;47.650;10.720;2022-12-11T01:06:26;17.90;;;8.70;;
3006;SDS011;1513;47.650;10.720;2022-12-11T01:08:53;19.00;;;8.70;;
3006;SDS011;1513;47.650;10.720;2022-12-11T01:11:39;20.67;;;8.37;;
3006;SDS011;1513;47.650;10.720;2022-12-11T01:14:07;17.13;;;7.40;;
3006;SDS011;1513;47.650;10.720;2022-12-11T01:16:34;17.77;;;6.90;;
3006;SDS011;1513;47.650;10.720;2022-12-11T01:19:00;15.60;;;6.90;;
3006;SDS011;1513;47.650;10.720;2022-12-11T01:21:27;17.80;;;7.20;;
3006;SDS011;1513;47.650;10.720;2022-12-11T01:23:53;15.70;;;7.13;;
3006;SDS011;1513;47.650;10.720;2022-12-11T01:26:19;16.20;;;7.40;;
3006;SDS011;1513;47.650;10.720;2022-12-11T01:28:48;13.07;;;5.80;;
3006;SDS011;1513;47.650;10.720;2022-12-11T01:31:15;13.47;;;6.40;;
3006;SDS011;1513;47.650;10.720;2022-12-11T01:33:41;15.23;;;6.27;;
3006;SDS011;1513;47.650;10.720;2022-12-11T01:38:38;14.17;;;6.37;;
3006;SDS011;1513;47.650;10.720;2022-12-11T01:41:04;12.07;;;5.73;;
3006;SDS011;1513;47.650;10.720;2022-12-11T01:43:32;17.53;;;7.13;;
3006;SDS011;1513;47.650;10.720;2022-12-11T01:45:58;18.70;;;8.93;;
3006;SDS011;1513;47.650;10.720;2022-12-11T01:48:25;17.00;;;7.40;;
3006;SDS011;1513;47.650;10.720;2022-12-11T01:51:01;21.30;;;8.80;;
3006;SDS011;1513;47.650;10.720;2022-12-11T01:53:33;19.83;;;9.17;;
3006;SDS011;1513;47.650;10.720;2022-12-11T01:56:05;21.20;;;9.10;;
3006;SDS011;1513;47.650;10.720;2022-12-11T01:58:34;18.33;;;10.13;;
3006;SDS011;1513;47.650;10.720;2022-12-11T02:01:07;20.50;;;9.43;;
3006;SDS011;1513;47.650;10.720;2022-12-11T02:03:41;22.40;;;8.87;;
3006;SDS011;1513;47.650;10.720;2022-12-11T02:06:26;13.40;;;7.70;;
3006;SDS011;1513;47.650;10.720;2022-12-11T02:08:55;17.67;;;8.30;;
3006;SDS011;1513;47.650;10.720;2022-12-11T02:11:21;16.23;;;8.63;;
3006;SDS011;1513;47.650;10.720;2022-12-11T02:14:07;23.03;;;9.17;;
3006;SDS011;1513;47.650;10.720;2022-12-11T02:17:20;17.17;;;7.70;;
3006;SDS011;1513;47.650;10.720;2022-12-11T02:28:45;23.40;;;9.87;;
3006;SDS011;1513;47.650;10.720;2022-12-11T02:31:13;21.43;;;9.23;;
3006;SDS011;1513;47.650;10.720;2022-12-11T02:34:00;21.53;;;10.20;;
3006;SDS011;1513;47.650;10.720;2022-12-11T02:36:34;21.60;;;9.90;;
3006;SDS011;1513;47.650;10.720;2022-12-11T02:39:06;24.70;;;9.67;;
3006;SDS011;1513;47.650;10.720;2022-12-11T02:41:37;21.23;;;10.07;;
3006;SDS011;1513;47.650;10.720;2022-12-11T02:44:11;27.13;;;10.67;;
3006;SDS011;1513;47.650;10.720;2022-12-11T02:46:41;29.23;;;11.30;;
3006;SDS011;1513;47.650;10.720;2022-12-11T02:49:09;29.63;;;11.77;;
3006;SDS011;1513;47.650;10.720;2022-12-11T02:51:41;27.90;;;12.43;;
3006;SDS011;1513;47.650;10.720;2022-12-11T02:54:14;29.43;;;11.63;;
3006;SDS011;1513;47.650;10.720;2022-12-11T02:56:46;29.53;;;12.03;;
3006;SDS011;1513;47.650;10.720;2022-12-11T02:59:23;41.60;;;13.60;;
3006;SDS011;1513;47.650;10.720;2022-12-11T03:01:55;28.03;;;12.53;;
3006;SDS011;1513;47.650;10.720;2022-12-11T03:04:21;34.10;;;13.50;;
3006;SDS011;1513;47.650;10.720;2022-12-11T03:06:50;36.67;;;13.67;;
3006;SDS011;1513;47.650;10.720;2022-12-11T03:09:19;31.57;;;13.77;;
3006;SDS011;1513;47.650;10.720;2022-12-11T03:11:46;30.90;;;13.57;;
3006;SDS011;1513;47.650;10.720;2022-12-11T03:14:11;34.43;;;13.93;;
3006;SDS011;1513;47.650;10.720;2022-12-11T03:16:41;33.10;;;14.37;;
3006;SDS011;1513;47.650;10.720;2022-12-11T03:24:54;39.40;;;14.83;;
3006;SDS011;1513;47.650;10.720;2022-12-11T03:27:29;35.47;;;15.07;;
3006;SDS011;1513;47.650;10.720;2022-12-11T03:30:03;39.90;;;14.20;;
3006;SDS011;1513;47.650;10.720;2022-12-11T03:32:43;33.90;;;14.30;;
3006;SDS011;1513;47.650;10.720;2022-12-11T03:35:26;33.87;;;14.63;;
3006;SDS011;1513;47.650;10.720;2022-12-11T03:38:10;42.07;;;15.07;;
3006;SDS011;1513;47.650;10.720;2022-12-11T03:40:44;37.00;;;15.50;;
3006;SDS011;1513;47.650;10.720;2022-12-11T03:43:12;41.37;;;15.67;;
3006;SDS011;1513;47.650;10.720;2022-12-11T03:45:40;41.43;;;16.63;;
3006;SDS011;1513;47.650;10.720;2022-12-11T03:48:07;43.13;;;15.80;;
3006;SDS011;1513;47.650;10.720;2022-12-11T03:50:34;35.43;;;15.47;;
3006;SDS011;1513;47.650;10.720;2022-12-11T03:53:01;36.80;;;15.03;;
3006;SDS011;1513;47.650;10.720;2022-12-11T03:55:28;44.53;;;16.67;;
3006;SDS011;1513;47.650;10.720;2022-12-11T03:57:56;33.77;;;14.93;;
3006;SDS011;1513;47.650;10.720;2022-12-11T04:00:22;47.60;;;15.80;;
3006;SDS011;1513;47.650;10.720;2022-12-11T04:02:49;35.43;;;15.63;;
3006;SDS011;1513;47.650;10.720;2022-12-11T04:05:33;40.27;;;16.30;;
3006;SDS011;1513;47.650;10.720;2022-12-11T04:07:59;40.70;;;15.60;;
3006;SDS011;1513;47.650;10.720;2022-12-11T04:10:25;45.20;;;17.17;;
3006;SDS011;1513;47.650;10.720;2022-12-11T04:12:52;46.37;;;18.90;;
3006;SDS011;1513;47.650;10.720;2022-12-11T04:15:18;43.13;;;16.93;;
3006;SDS011;1513;47.650;10.720;2022-12-11T04:17:44;42.70;;;17.00;;
3006;SDS011;1513;47.650;10.720;2022-12-11T04:20:28;38.67;;;14.97;;
3006;SDS011;1513;47.650;10.720;2022-12-11T04:23:13;44.80;;;15.87;;
3006;SDS011;1513;47.650;10.720;2022-12-11T04:28:35;41.47;;;15.90;;
3006;SDS011;1513;47.650;10.720;2022-12-11T04:31:01;50.60;;;16.93;;
3006;SDS011;1513;47.650;10.720;2022-12-11T04:33:28;43.73;;;16.43;;
3006;SDS011;1513;47.650;10.720;2022-12-11T04:35:56;48.93;;;17.87;;
3006;SDS011;1513;47.650;10.720;2022-12-11T04:38:23;44.27;;;17.77;;
3006;SDS011;1513;47.650;10.720;2022-12-11T04:40:56;47.40;;;18.80;;
3006;SDS011;1513;47.650;10.720;2022-12-11T04:43:34;43.00;;;16.97;;
3006;SDS011;1513;47.650;10.720;2022-12-11T04:46:02;39.77;;;15.83;;
3006;SDS011;1513;47.650;10.720;2022-12-11T04:48:38;43.30;;;16.10;;
3006;SDS011;1513;47.650;10.720;2022-12-11T04:51:04;46.87;;;17.53;;
3006;SDS011;1513;47.650;10.720;2022-12-11T04:53:31;44.27;;;18.10;;
3006;SDS011;1513;47.650;10.720;2022-12-11T04:55:57;41.47;;;16.20;;
3006;SDS011;1513;47.650;10.720;2022-12-11T04:58:23;40.30;;;16.63;;
3006;SDS011;1513;47.650;10.720;2022-12-11T05:00:50;42.57;;;16.03;;
3006;SDS011;1513;47.650;10.720;2022-12-11T05:03:16;37.37;;;15.30;;
3006;SDS011;1513;47.650;10.720;2022-12-11T05:05:47;38.00;;;15.73;;
3006;SDS011;1513;47.650;10.720;2022-12-11T05:08:18;42.87;;;16.00;;
3006;SDS011;1513;47.650;10.720;2022-12-11T05:10:53;34.63;;;13.70;;
3006;SDS011;1513;47.650;10.720;2022-12-11T05:13:24;44.13;;;16.57;;
3006;SDS011;1513;47.650;10.720;2022-12-11T05:15:52;38.43;;;14.20;;
3006;SDS011;1513;47.650;10.720;2022-12-11T05:18:17;45.83;;;15.47;;
3006;SDS011;1513;47.650;10.720;2022-12-11T05:20:44;33.87;;;13.83;;
3006;SDS011;1513;47.650;10.720;2022-12-11T05:23:19;42.50;;;16.10;;
3006;SDS011;1513;47.650;10.720;2022-12-11T05:25:50;31.13;;;12.73;;
3006;SDS011;1513;47.650;10.720;2022-12-11T05:28:20;37.93;;;14.47;;
3006;SDS011;1513;47.650;10.720;2022-12-11T05:30:46;37.67;;;15.63;;
3006;SDS011;1513;47.650;10.720;2022-12-11T05:33:12;40.73;;;15.47;;
3006;SDS011;1513;47.650;10.720;2022-12-11T05:35:38;35.47;;;15.60;;
3006;SDS011;1513;47.650;10.720;2022-12-11T05:38:12;35.57;;;14.60;;
3006;SDS011;1513;47.650;10.720;2022-12-11T05:40:38;35.23;;;14.00;;
3006;SDS011;1513;47.650;10.720;2022-12-11T05:43:03;40.20;;;16.40;;
3006;SDS011;1513;47.650;10.720;2022-12-11T05:45:29;37.27;;;14.60;;
3006;SDS011;1513;47.650;10.720;2022-12-11T05:47:55;43.20;;;16.50;;
3006;SDS011;1513;47.650;10.720;2022-12-11T05:50:21;39.33;;;15.23;;
3006;SDS011;1513;47.650;10.720;2022-12-11T05:52:47;36.60;;;15.10;;
3006;SDS011;1513;47.650;10.720;2022-12-11T05:55:13;36.37;;;14.50;;
3006;SDS011;1513;47.650;10.720;2022-12-11T05:57:38;40.00;;;15.10;;
3006;SDS011;1513;47.650;10.720;2022-12-11T06:00:04;37.37;;;15.07;;
3006;SDS011;1513;47.650;10.720;2022-12-11T06:02:33;38.57;;;15.57;;
3006;SDS011;1513;47.650;10.720;2022-12-11T06:05:01;39.73;;;14.13;;
3006;SDS011;1513;47.650;10.720;2022-12-11T06:07:27;34.03;;;13.00;;
3006;SDS011;1513;47.650;10.720;2022-12-11T06:09:52;37.60;;;13.63;;
3006;SDS011;1513;47.650;10.720;2022-12-11T06:12:18;38.47;;;13.60;;
3006;SDS011;1513;47.650;10.720;2022-12-11T06:14:44;37.37;;;14.60;;
3006;SDS011;1513;47.650;10.720;2022-12-11T06:17:10;36.57;;;15.20;;
3006;SDS011;1513;47.650;10.720;2022-12-11T06:19:36;46.27;;;14.47;;
3006;SDS011;1513;47.650;10.720;2022-12-11T06:22:01;40.27;;;15.53;;
3006;SDS011;1513;47.650;10.720;2022-12-11T06:24:28;43.10;;;14.93;;
3006;SDS011;1513;47.650;10.720;2022-12-11T06:26:54;49.23;;;16.43;;
3006;SDS011;1513;47.650;10.720;2022-12-11T06:29:19;44.37;;;16.70;;
3006;SDS011;1513;47.650;10.720;2022-12-11T06:31:45;34.90;;;14.27;;
3006;SDS011;1513;47.650;10.720;2022-12-11T06:34:11;34.40;;;14.03;;
3006;SDS011;1513;47.650;10.720;2022-12-11T06:36:37;39.00;;;15.43;;
3006;SDS011;1513;47.650;10.720;2022-12-11T06:39:04;44.57;;;16.50;;
3006;SDS011;1513;47.650;10.720;2022-12-11T06:41:30;46.63;;;18.97;;
3006;SDS011;1513;47.650;10.720;2022-12-11T06:43:55;47.43;;;18.20;;
3006;SDS011;1513;47.650;10.720;2022-12-11T06:46:21;41.27;;;18.00;;
3006;SDS011;1513;47.650;10.720;2022-12-11T06:48:47;48.43;;;18.40;;
3006;SDS011;1513;47.650;10.720;2022-12-11T06:51:17;42.40;;;16.80;;
3006;SDS011;1513;47.650;10.720;2022-12-11T06:53:50;47.80;;;20.50;;
3006;SDS011;1513;47.650;10.720;2022-12-11T06:56:17;57.47;;;25.07;;
3006;SDS011;1513;47.650;10.720;2022-12-11T06:58:43;59.80;;;22.83;;
3006;SDS011;1513;47.650;10.720;2022-12-11T07:01:13;46.70;;;19.00;;
3006;SDS011;1513;47.650;10.720;2022-12-11T07:03:45;41.60;;;17.50;;
3006;SDS011;1513;47.650;10.720;2022-12-11T07:06:11;37.13;;;14.70;;
3006;SDS011;1513;47.650;10.720;2022-12-11T07:08:38;36.07;;;15.93;;
3006;SDS011;1513;47.650;10.720;2022-12-11T07:11:11;36.27;;;15.20;;
3006;SDS011;1513;47.650;10.720;2022-12-11T07:13:39;40.60;;;16.47;;
3006;SDS011;1513;47.650;10.720;2022-12-11T07:16:06;37.10;;;14.93;;
3006;SDS011;1513;47.650;10.720;2022-12-11T07:18:37;41.50;;;16.00;;
3006;SDS011;1513;47.650;10.720;2022-12-11T07:21:11;38.73;;;15.77;;
3006;SDS011;1513;47.650;10.720;2022-12-11T07:23:38;54.47;;;19.37;;
3006;SDS011;1513;47.650;10.720;2022-12-11T07:26:05;57.60;;;20.60;;
3006;SDS011;1513;47.650;10.720;2022-12-11T07:28:34;47.43;;;17.47;;
3006;SDS011;1513;47.650;10.720;2022-12-11T07:31:03;77.57;;;22.07;;
3006;SDS011;1513;47.650;10.720;2022-12-11T07:33:31;67.07;;;23.07;;
3006;SDS011;1513;47.650;10.720;2022-12-11T07:35:59;139.30;;;43.90;;
3006;SDS011;1513;47.650;10.720;2022-12-11T07:38:30;173.23;;;55.20;;
3006;SDS011;1513;47.650;10.720;2022-12-11T07:40:59;99.40;;;35.10;;
3006;SDS011;1513;47.650;10.720;2022-12-11T07:43:29;92.23;;;33.27;;
3006;SDS011;1513;47.650;10.720;2022-12-11T07:45:59;107.80;;;33.90;;
3006;SDS011;1513;47.650;10.720;2022-12-11T07:48:30;73.27;;;28.60;;
3006;SDS011;1513;47.650;10.720;2022-12-11T07:51:06;86.70;;;30.80;;
3006;SDS011;1513;47.650;10.720;2022-12-11T07:53:39;71.23;;;25.03;;
3006;SDS011;1513;47.650;10.720;2022-12-11T07:56:07;105.83;;;35.87;;
3006;SDS011;1513;47.650;10.720;2022-12-11T07:58:33;60.23;;;21.90;;
3006;SDS011;1513;47.650;10.720;2022-12-11T08:01:00;64.33;;;24.00;;
3006;SDS011;1513;47.650;10.720;2022-12-11T08:03:26;51.03;;;18.47;;
3006;SDS011;1513;47.650;10.720;2022-12-11T08:05:51;41.20;;;16.03;;
3006;SDS011;1513;47.650;10.720;2022-12-11T08:08:18;32.10;;;12.90;;
3006;SDS011;1513;47.650;10.720;2022-12-11T08:10:44;30.10;;;12.10;;
3006;SDS011;1513;47.650;10.720;2022-12-11T08:13:10;29.07;;;11.70;;
3006;SDS011;1513;47.650;10.720;2022-12-11T08:15:36;36.97;;;14.03;;
3006;SDS011;1513;47.650;10.720;2022-12-11T08:18:03;61.10;;;18.97;;
3006;SDS011;1513;47.650;10.720;2022-12-11T08:20:29;47.80;;;19.13;;
3006;SDS011;1513;47.650;10.720;2022-12-11T08:22:55;45.67;;;18.30;;
3006;SDS011;1513;47.650;10.720;2022-12-11T08:25:21;53.10;;;20.70;;
3006;SDS011;1513;47.650;10.720;2022-12-11T08:27:47;60.57;;;21.23;;
3006;SDS011;1513;47.650;10.720;2022-12-11T08:30:13;45.33;;;17.37;;
3006;SDS011;1513;47.650;10.720;2022-12-11T08:32:39;38.40;;;15.27;;
3006;SDS011;1513;47.650;10.720;2022-12-11T08:35:06;43.87;;;16.50;;
3006;SDS011;1513;47.650;10.720;2022-12-11T08:37:32;45.90;;;17.20;;
3006;SDS011;1513;47.650;10.720;2022-12-11T08:39:59;38.90;;;15.93;;
3006;SDS011;1513;47.650;10.720;2022-12-11T08:42:24;37.83;;;15.90;;
3006;SDS011;1513;47.650;10.720;2022-12-11T08:44:50;34.47;;;14.87;;
3006;SDS011;1513;47.650;10.720;2022-12-11T08:47:16;44.17;;;16.50;;
3006;SDS011;1513;47.650;10.720;2022-12-11T08:49:42;37.27;;;14.67;;
3006;SDS011;1513;47.650;10.720;2022-12-11T08:52:08;36.90;;;16.00;;
3006;SDS011;1513;47.650;10.720;2022-12-11T08:54:35;38.77;;;16.23;;
3006;SDS011;1513;47.650;10.720;2022-12-11T08:57:02;45.83;;;19.97;;
3006;SDS011;1513;47.650;10.720;2022-12-11T08:59:29;49.40;;;19.33;;
3006;SDS011;1513;47.650;10.720;2022-12-11T09:01:55;48.23;;;21.07;;
3006;SDS011;1513;47.650;10.720;2022-12-11T09:04:21;35.97;;;16.90;;
3006;SDS011;1513;47.650;10.720;2022-12-11T09:06:47;31.67;;;14.17;;
3006;SDS011;1513;47.650;10.720;2022-12-11T09:09:13;28.80;;;12.17;;
3006;SDS011;1513;47.650;10.720;2022-12-11T09:11:39;25.13;;;10.73;;
3006;SDS011;1513;47.650;10.720;2022-12-11T09:14:06;25.80;;;10.83;;
3006;SDS011;1513;47.650;10.720;2022-12-11T09:16:32;22.60;;;8.63;;
3006;SDS011;1513;47.650;10.720;2022-12-11T09:19:01;26.10;;;9.53;;
3006;SDS011;1513;47.650;10.720;2022-12-11T09:21:28;24.17;;;8.90;;
3006;SDS011;1513;47.650;10.720;2022-12-11T09:23:56;20.50;;;9.73;;
3006;SDS011;1513;47.650;10.720;2022-12-11T09:26:24;24.37;;;9.90;;
3006;SDS011;1513;47.650;10.720;2022-12-11T09:28:51;27.30;;;10.10;;
3006;SDS011;1513;47.650;10.720;2022-12-11T09:31:22;20.30;;;9.80;;
3006;SDS011;1513;47.650;10.720;2022-12-11T09:33:55;26.10;;;9.73;;
3006;SDS011;1513;47.650;10.720;2022-12-11T09:36:26;19.00;;;9.13;;
3006;SDS011;1513;47.650;10.720;2022-12-11T09:38:53;20.80;;;9.33;;
3006;SDS011;1513;47.650;10.720;2022-12-11T09:43:46;18.23;;;8.93;;
3006;SDS011;1513;47.650;10.720;2022-12-11T09:46:25;18.60;;;8.60;;
3006;SDS011;1513;47.650;10.720;2022-12-11T09:48:53;18.13;;;8.77;;
3006;SDS011;1513;47.650;10.720;2022-12-11T09:53:50;17.97;;;8.77;;
3006;SDS011;1513;47.650;10.720;2022-12-11T09:56:25;21.93;;;9.63;;
3006;SDS011;1513;47.650;10.720;2022-12-11T10:02:31;26.33;;;10.60;;
3006;SDS011;1513;47.650;10.720;2022-12-11T10:04:57;24.93;;;10.10;;
3006;SDS011;1513;47.650;10.720;2022-12-11T10:07:51;25.27;;;11.00;;
3006;SDS011;1513;47.650;10.720;2022-12-11T10:10:46;21.43;;;9.10;;
3006;SDS011;1513;47.650;10.720;2022-12-11T10:13:36;18.43;;;9.30;;
3006;SDS011;1513;47.650;10.720;2022-12-11T10:16:32;19.77;;;9.47;;
3006;SDS011;1513;47.650;10.720;2022-12-11T10:19:13;26.50;;;10.77;;
3006;SDS011;1513;47.650;10.720;2022-12-11T10:21:46;19.57;;;9.37;;
3006;SDS011;1513;47.650;10.720;2022-12-11T10:24:17;22.97;;;9.60;;
3006;SDS011;1513;47.650;10.720;2022-12-11T10:26:54;20.60;;;10.20;;
3006;SDS011;1513;47.650;10.720;2022-12-11T10:29:22;24.60;;;10.60;;
3006;SDS011;1513;47.650;10.720;2022-12-11T10:31:53;24.10;;;10.93;;
3006;SDS011;1513;47.650;10.720;2022-12-11T10:34:32;25.97;;;11.80;;
3006;SDS011;1513;47.650;10.720;2022-12-11T10:37:00;25.43;;;11.90;;
3006;SDS011;1513;47.650;10.720;2022-12-11T10:39:26;27.20;;;12.30;;
3006;SDS011;1513;47.650;10.720;2022-12-11T10:41:53;29.67;;;12.07;;
3006;SDS011;1513;47.650;10.720;2022-12-11T10:44:21;26.70;;;11.57;;
3006;SDS011;1513;47.650;10.720;2022-12-11T10:49:51;27.53;;;12.57;;
3006;SDS011;1513;47.650;10.720;2022-12-11T10:52:28;25.77;;;11.67;;
3006;SDS011;1513;47.650;10.720;2022-12-11T10:55:01;27.07;;;12.80;;
3006;SDS011;1513;47.650;10.720;2022-12-11T10:57:33;28.20;;;13.30;;
3006;SDS011;1513;47.650;10.720;2022-12-11T11:00:00;28.73;;;13.83;;
3006;SDS011;1513;47.650;10.720;2022-12-11T11:02:32;31.53;;;14.53;;
3006;SDS011;1513;47.650;10.720;2022-12-11T11:05:10;33.20;;;16.30;;
3006;SDS011;1513;47.650;10.720;2022-12-11T11:07:42;40.47;;;16.83;;
3006;SDS011;1513;47.650;10.720;2022-12-11T11:12:42;45.73;;;19.80;;
3006;SDS011;1513;47.650;10.720;2022-12-11T11:15:14;40.73;;;18.90;;
3006;SDS011;1513;47.650;10.720;2022-12-11T11:17:49;35.70;;;15.63;;
3006;SDS011;1513;47.650;10.720;2022-12-11T11:20:18;29.83;;;12.77;;
3006;SDS011;1513;47.650;10.720;2022-12-11T11:22:49;22.03;;;10.97;;
3006;SDS011;1513;47.650;10.720;2022-12-11T11:25:21;24.73;;;12.00;;
3006;SDS011;1513;47.650;10.720;2022-12-11T11:27:57;29.50;;;12.53;;
3006;SDS011;1513;47.650;10.720;2022-12-11T11:30:28;27.07;;;11.57;;
3006;SDS011;1513;47.650;10.720;2022-12-11T11:33:02;17.90;;;10.10;;
3006;SDS011;1513;47.650;10.720;2022-12-11T11:35:55;24.63;;;11.00;;
3006;SDS011;1513;47.650;10.720;2022-12-11T11:38:28;23.90;;;10.90;;
3006;SDS011;1513;47.650;10.720;2022-12-11T11:41:48;23.30;;;11.07;;
3006;SDS011;1513;47.650;10.720;2022-12-11T11:44:40;28.20;;;12.73;;
3006;SDS011;1513;47.650;10.720;2022-12-11T11:47:18;27.47;;;11.80;;
3006;SDS011;1513;47.650;10.720;2022-12-11T11:49:59;29.27;;;13.03;;
3006;SDS011;1513;47.650;10.720;2022-12-11T11:52:54;24.63;;;11.50;;
3006;SDS011;1513;47.650;10.720;2022-12-11T11:58:21;23.70;;;10.70;;
3006;SDS011;1513;47.650;10.720;2022-12-11T12:01:28;20.50;;;10.00;;
3006;SDS011;1513;47.650;10.720;2022-12-11T12:03:54;32.13;;;12.20;;
3006;SDS011;1513;47.650;10.720;2022-12-11T12:06:30;25.20;;;11.10;;
3006;SDS011;1513;47.650;10.720;2022-12-11T12:09:31;18.30;;;8.60;;
3006;SDS011;1513;47.650;10.720;2022-12-11T12:12:16;16.30;;;7.17;;
3006;SDS011;1513;47.650;10.720;2022-12-11T12:23:42;17.77;;;8.83;;
3006;SDS011;1513;47.650;10.720;2022-12-11T12:26:31;18.50;;;8.20;;
3006;SDS011;1513;47.650;10.720;2022-12-11T12:29:07;24.30;;;8.70;;
3006;SDS011;1513;47.650;10.720;2022-12-11T12:37:39;17.77;;;8.27;;
3006;SDS011;1513;47.650;10.720;2022-12-11T12:40:19;15.33;;;7.30;;
3006;SDS011;1513;47.650;10.720;2022-12-11T12:49:11;16.40;;;8.73;;
3006;SDS011;1513;47.650;10.720;2022-12-11T12:51:44;16.13;;;7.40;;
3006;SDS011;1513;47.650;10.720;2022-12-11T12:54:13;16.27;;;7.90;;
3006;SDS011;1513;47.650;10.720;2022-12-11T12:56:40;15.30;;;7.97;;
3006;SDS011;1513;47.650;10.720;2022-12-11T13:02:03;11.63;;;6.00;;
3006;SDS011;1513;47.650;10.720;2022-12-11T13:04:35;15.83;;;6.87;;
3006;SDS011;1513;47.650;10.720;2022-12-11T13:07:17;12.57;;;5.67;;
3006;SDS011;1513;47.650;10.720;2022-12-11T13:10:06;13.30;;;6.50;;
3006;SDS011;1513;47.650;10.720;2022-12-11T13:12:48;16.70;;;7.03;;
3006;SDS011;1513;47.650;10.720;2022-12-11T13:17:59;15.50;;;7.60;;
3006;SDS011;1513;47.650;10.720;2022-12-11T13:20:30;17.43;;;8.30;;
3006;SDS011;1513;47.650;10.720;2022-12-11T13:25:49;25.13;;;11.90;;
3006;SDS011;1513;47.650;10.720;2022-12-11T13:28:28;45.83;;;20.03;;
3006;SDS011;1513;47.650;10.720;2022-12-11T13:31:04;33.83;;;14.90;;
3006;SDS011;1513;47.650;10.720;2022-12-11T13:33:54;21.17;;;9.47;;
3006;SDS011;1513;47.650;10.720;2022-12-11T13:36:23;21.07;;;8.83;;
3006;SDS011;1513;47.650;10.720;2022-12-11T13:38:57;16.57;;;8.00;;
3006;SDS011;1513;47.650;10.720;2022-12-11T13:42:03;23.43;;;9.27;;
3006;SDS011;1513;47.650;10.720;2022-12-11T13:44:33;34.37;;;13.90;;
3006;SDS011;1513;47.650;10.720;2022-12-11T13:47:11;26.70;;;13.60;;
3006;SDS011;1513;47.650;10.720;2022-12-11T13:49:41;28.47;;;12.43;;
3006;SDS011;1513;47.650;10.720;2022-12-11T13:52:19;24.27;;;11.67;;
3006;SDS011;1513;47.650;10.720;2022-12-11T13:54:53;27.10;;;12.77;;
3006;SDS011;1513;47.650;10.720;2022-12-11T13:57:26;35.87;;;17.53;;
3006;SDS011;1513;47.650;10.720;2022-12-11T13:59:55;20.60;;;10.07;;
3006;SDS011;1513;47.650;10.720;2022-12-11T14:02:29;36.40;;;15.90;;
3006;SDS011;1513;47.650;10.720;2022-12-11T14:05:03;19.63;;;8.97;;
3006;SDS011;1513;47.650;10.720;2022-12-11T14:07:34;18.70;;;8.23;;
3006;SDS011;1513;47.650;10.720;2022-12-11T14:10:07;14.67;;;8.07;;
3006;SDS011;1513;47.650;10.720;2022-12-11T14:13:01;20.53;;;8.50;;
3006;SDS011;1513;47.650;10.720;2022-12-11T14:15:31;26.30;;;9.00;;
3006;SDS011;1513;47.650;10.720;2022-12-11T14:17:59;14.83;;;7.57;;
3006;SDS011;1513;47.650;10.720;2022-12-11T14:20:27;24.13;;;8.77;;
3006;SDS011;1513;47.650;10.720;2022-12-11T14:25:54;22.07;;;9.60;;
3006;SDS011;1513;47.650;10.720;2022-12-11T14:28:24;23.13;;;10.20;;
3006;SDS011;1513;47.650;10.720;2022-12-11T14:30:58;46.37;;;20.77;;
3006;SDS011;1513;47.650;10.720;2022-12-11T14:33:30;35.90;;;16.97;;
3006;SDS011;1513;47.650;10.720;2022-12-11T14:35:59;27.87;;;13.03;;
3006;SDS011;1513;47.650;10.720;2022-12-11T14:38:37;21.40;;;10.50;;
3006;SDS011;1513;47.650;10.720;2022-12-11T14:41:12;16.77;;;8.60;;
3006;SDS011;1513;47.650;10.720;2022-12-11T14:43:47;20.10;;;9.63;;
3006;SDS011;1513;47.650;10.720;2022-12-11T14:46:17;19.80;;;9.40;;
3006;SDS011;1513;47.650;10.720;2022-12-11T14:48:58;21.43;;;8.47;;
3006;SDS011;1513;47.650;10.720;2022-12-11T14:51:32;18.20;;;8.13;;
3006;SDS011;1513;47.650;10.720;2022-12-11T14:54:03;21.57;;;7.87;;
3006;SDS011;1513;47.650;10.720;2022-12-11T14:56:31;25.03;;;10.27;;
3006;SDS011;1513;47.650;10.720;2022-12-11T14:58:59;58.93;;;20.50;;
3006;SDS011;1513;47.650;10.720;2022-12-11T15:01:31;57.03;;;20.00;;
3006;SDS011;1513;47.650;10.720;2022-12-11T15:04:00;43.70;;;16.50;;
3006;SDS011;1513;47.650;10.720;2022-12-11T15:06:42;47.73;;;15.87;;
3006;SDS011;1513;47.650;10.720;2022-12-11T15:09:15;48.40;;;17.07;;
3006;SDS011;1513;47.650;10.720;2022-12-11T15:12:15;37.90;;;14.63;;
3006;SDS011;1513;47.650;10.720;2022-12-11T15:14:47;32.50;;;11.73;;
3006;SDS011;1513;47.650;10.720;2022-12-11T15:17:20;22.87;;;8.33;;
3006;SDS011;1513;47.650;10.720;2022-12-11T15:19:48;16.37;;;8.10;;
3006;SDS011;1513;47.650;10.720;2022-12-11T15:22:18;25.17;;;9.70;;
3006;SDS011;1513;47.650;10.720;2022-12-11T15:24:51;22.57;;;10.40;;
3006;SDS011;1513;47.650;10.720;2022-12-11T15:27:36;29.00;;;11.83;;
3006;SDS011;1513;47.650;10.720;2022-12-11T15:30:14;30.67;;;11.87;;
3006;SDS011;1513;47.650;10.720;2022-12-11T15:35:30;20.00;;;9.10;;
3006;SDS011;1513;47.650;10.720;2022-12-11T15:37:56;20.73;;;9.30;;
3006;SDS011;1513;47.650;10.720;2022-12-11T15:40:22;21.33;;;10.00;;
3006;SDS011;1513;47.650;10.720;2022-12-11T15:42:49;24.40;;;10.97;;
3006;SDS011;1513;47.650;10.720;2022-12-11T15:45:20;34.20;;;17.70;;
3006;SDS011;1513;47.650;10.720;2022-12-11T15:47:51;40.10;;;21.90;;
3006;SDS011;1513;47.650;10.720;2022-12-11T15:52:50;50.27;;;24.70;;
3006;SDS011;1513;47.650;10.720;2022-12-11T15:55:17;55.47;;;25.53;;
3006;SDS011;1513;47.650;10.720;2022-12-11T15:58:04;58.87;;;27.00;;
3006;SDS011;1513;47.650;10.720;2022-12-11T16:00:33;83.87;;;25.90;;
3006;SDS011;1513;47.650;10.720;2022-12-11T16:02:59;75.40;;;24.63;;
3006;SDS011;1513;47.650;10.720;2022-12-11T16:05:25;115.80;;;29.77;;
3006;SDS011;1513;47.650;10.720;2022-12-11T16:07:51;125.13;;;33.70;;
3006;SDS011;1513;47.650;10.720;2022-12-11T16:10:19;156.03;;;39.63;;
3006;SDS011;1513;47.650;10.720;2022-12-11T16:12:46;140.43;;;38.47;;
3006;SDS011;1513;47.650;10.720;2022-12-11T16:15:12;134.47;;;38.83;;